createdAt,value
2023-01-12T00:03:55.527Z,6.28
2023-01-12T00:09:17.223Z,8.07
2023-01-12T00:14:39.285Z,5.28
2023-01-12T00:20:00.964Z,8.30
2023-01-12T00:25:22.697Z,13.83
2023-01-12T00:30:44.548Z,11.77
2023-01-12T00:36:10.068Z,10.73
2023-01-12T00:41:50.311Z,10.47
2023-01-12T00:47:13.225Z,8.63
2023-01-12T00:52:34.994Z,8.63
2023-01-12T00:57:57.253Z,5.88
2023-01-12T01:03:18.935Z,6.40
2023-01-12T01:08:40.669Z,5.10
2023-01-12T01:14:03.119Z,6.82
2023-01-12T01:19:24.922Z,6.63
2023-01-12T01:24:47.564Z,5.77
2023-01-12T01:30:09.896Z,10.05
2023-01-12T01:35:31.578Z,5.70
2023-01-12T01:40:54.023Z,9.50
2023-01-12T01:46:20.819Z,6.80
2023-01-12T01:51:45.493Z,6.88
2023-01-12T01:57:09.570Z,6.72
2023-01-12T02:02:31.441Z,8.97
2023-01-12T02:07:53.687Z,4.73
2023-01-12T02:13:34.206Z,6.37
2023-01-12T02:19:14.486Z,7.55
2023-01-12T02:25:08.003Z,4.88
2023-01-12T02:31:13.604Z,7.00
2023-01-12T02:36:45.552Z,5.30
2023-01-12T02:42:28.915Z,7.70
2023-01-12T02:48:05.809Z,6.90
2023-01-12T02:53:38.531Z,10.43
2023-01-12T02:59:07.270Z,7.13
2023-01-12T03:04:32.097Z,8.52
2023-01-12T03:10:00.424Z,8.02
2023-01-12T03:15:24.295Z,8.93
2023-01-12T03:20:52.387Z,5.43
2023-01-12T03:26:19.254Z,11.88
2023-01-12T03:31:42.146Z,9.45
2023-01-12T03:37:11.949Z,9.60
2023-01-12T03:42:50.111Z,10.02
2023-01-12T03:48:24.639Z,12.93
2023-01-12T03:53:49.411Z,10.90
2023-01-12T03:59:11.196Z,7.03
2023-01-12T04:04:32.912Z,9.60
2023-01-12T04:09:54.644Z,8.03
2023-01-12T04:15:16.351Z,9.82
2023-01-12T04:20:39.160Z,9.20
2023-01-12T04:26:00.838Z,11.20
2023-01-12T04:31:22.590Z,7.28
2023-01-12T04:36:44.410Z,11.65
2023-01-12T04:42:26.053Z,11.18
2023-01-12T04:47:47.768Z,8.75
2023-01-12T04:53:11.197Z,8.00
2023-01-12T04:58:33.248Z,13.25
2023-01-12T05:03:57.841Z,9.95
2023-01-12T05:09:38.242Z,12.15
2023-01-12T05:14:59.914Z,9.73
2023-01-12T05:20:21.631Z,11.90
2023-01-12T05:25:43.307Z,12.55
2023-01-12T05:31:08.817Z,12.02
2023-01-12T05:36:30.550Z,9.30
2023-01-12T05:42:11.171Z,8.55
2023-01-12T05:47:32.870Z,9.77
2023-01-12T05:52:54.642Z,12.68
2023-01-12T05:58:16.347Z,10.10
2023-01-12T06:03:38.055Z,10.52
2023-01-12T06:09:01.317Z,13.13
2023-01-12T06:14:23.060Z,8.90
2023-01-12T06:19:44.730Z,15.20
2023-01-12T06:25:07.014Z,13.80
2023-01-12T06:30:28.769Z,12.02
2023-01-12T06:35:50.886Z,9.70
2023-01-12T06:41:33.434Z,10.95
2023-01-12T06:46:55.202Z,8.77
2023-01-12T06:52:21.845Z,9.07
2023-01-12T06:57:43.814Z,7.93
2023-01-12T07:03:05.505Z,11.27
2023-01-12T07:08:27.667Z,12.55
2023-01-12T07:13:49.362Z,9.65
2023-01-12T07:19:11.065Z,11.90
2023-01-12T07:24:32.778Z,9.50
2023-01-12T07:29:54.438Z,11.73
2023-01-12T07:35:16.991Z,13.05
2023-01-12T07:41:01.444Z,12.25
2023-01-12T07:46:23.700Z,13.93
2023-01-12T07:51:45.635Z,8.82
2023-01-12T07:57:10.390Z,8.65
2023-01-12T08:02:32.751Z,7.97
2023-01-12T08:07:54.502Z,6.95
2023-01-12T08:13:18.527Z,4.70
2023-01-12T08:18:49.682Z,6.47
2023-01-12T08:24:17.453Z,11.80
2023-01-12T08:29:47.122Z,10.65
2023-01-12T08:35:10.530Z,11.27
2023-01-12T08:40:50.998Z,9.68
2023-01-12T08:46:12.744Z,7.82
2023-01-12T08:51:35.007Z,5.75
2023-01-12T08:56:56.993Z,6.88
2023-01-12T09:02:19.565Z,10.63
2023-01-12T09:07:42.904Z,6.33
2023-01-12T09:13:04.650Z,13.30
2023-01-12T09:18:26.401Z,10.20
2023-01-12T09:23:52.633Z,7.78
2023-01-12T09:29:14.648Z,12.48
2023-01-12T09:34:36.403Z,8.98
2023-01-12T09:39:59.740Z,10.45
2023-01-12T09:45:41.942Z,6.72
2023-01-12T09:51:17.843Z,11.15
2023-01-12T09:56:52.264Z,7.38
2023-01-12T10:02:14.732Z,9.50
2023-01-12T10:07:36.700Z,11.05
2023-01-12T10:13:04.601Z,11.27
2023-01-12T10:18:41.885Z,10.40
2023-01-12T10:24:12.042Z,8.70
2023-01-12T10:29:33.822Z,10.45
2023-01-12T10:34:55.541Z,8.80
2023-01-12T10:40:27.675Z,11.35
2023-01-12T10:46:32.956Z,5.80
2023-01-12T10:52:00.364Z,5.10
2023-01-12T10:57:24.413Z,8.23
2023-01-12T11:02:46.516Z,6.32
2023-01-12T11:08:27.805Z,4.35
2023-01-12T11:13:54.078Z,4.22
2023-01-12T11:19:19.137Z,4.85
2023-01-12T11:24:55.271Z,3.47
2023-01-12T11:30:26.046Z,6.97
2023-01-12T11:35:51.497Z,4.65
2023-01-12T11:41:23.089Z,2.28
2023-01-12T11:46:53.310Z,5.07
2023-01-12T11:52:16.301Z,4.63
2023-01-12T11:57:51.237Z,2.90
2023-01-12T12:03:38.692Z,2.63
2023-01-12T12:09:25.411Z,2.05
2023-01-12T12:15:01.564Z,2.25
2023-01-12T12:20:33.743Z,2.20
2023-01-12T12:26:10.023Z,3.65
2023-01-12T12:31:34.668Z,2.80
2023-01-12T12:37:14.285Z,3.58
2023-01-12T12:43:33.119Z,4.88
2023-01-12T12:49:05.273Z,3.08
2023-01-12T12:54:29.450Z,1.65
2023-01-12T12:59:56.967Z,4.25
2023-01-12T13:05:48.479Z,5.07
2023-01-12T13:11:10.503Z,2.38
2023-01-12T13:16:32.128Z,3.92
2023-01-12T13:21:59.053Z,2.30
2023-01-12T13:28:01.294Z,3.88
2023-01-12T13:33:29.702Z,1.70
2023-01-12T13:38:59.442Z,2.58
2023-01-12T13:44:27.151Z,3.05
2023-01-12T13:49:57.631Z,1.45
2023-01-12T13:55:22.420Z,4.13
2023-01-12T14:00:54.228Z,1.85
2023-01-12T14:06:35.501Z,2.20
2023-01-12T14:12:25.304Z,1.00
2023-01-12T14:17:49.886Z,3.63
2023-01-12T14:23:19.161Z,1.95
2023-01-12T14:28:43.604Z,1.38
2023-01-12T14:34:20.832Z,4.45
2023-01-12T14:39:46.873Z,1.42
2023-01-12T14:45:36.610Z,2.60
2023-01-12T14:51:00.970Z,1.63
2023-01-12T14:56:26.241Z,0.82
2023-01-12T15:01:48.553Z,1.40
2023-01-12T15:07:17.548Z,2.70
2023-01-12T15:12:43.973Z,2.28
2023-01-12T15:18:24.535Z,2.38
2023-01-12T15:24:06.650Z,6.32
2023-01-12T15:29:28.339Z,5.85
2023-01-12T15:34:50.086Z,2.30
2023-01-12T15:40:13.943Z,6.70
2023-01-12T15:45:39.116Z,3.25
2023-01-12T15:51:00.838Z,3.13
2023-01-12T15:56:24.790Z,3.43
2023-01-12T16:01:48.581Z,4.38
2023-01-12T16:07:10.491Z,3.88
2023-01-12T16:12:32.227Z,3.15
2023-01-12T16:17:53.949Z,2.03
2023-01-12T16:23:15.656Z,3.38
2023-01-12T16:28:37.611Z,3.88
2023-01-12T16:33:59.326Z,4.68
2023-01-12T16:39:21.268Z,2.70
2023-01-12T16:44:42.972Z,4.43
2023-01-12T16:50:05.160Z,3.40
2023-01-12T16:55:26.900Z,3.05
2023-01-12T17:00:48.658Z,3.38
2023-01-12T17:06:12.747Z,3.22
2023-01-12T17:11:35.285Z,2.85
2023-01-12T17:17:02.331Z,5.47
2023-01-12T17:22:24.254Z,3.30
2023-01-12T17:27:46.776Z,5.15
2023-01-12T17:33:08.555Z,5.45
2023-01-12T17:38:34.738Z,3.28
2023-01-12T17:43:56.949Z,3.50
2023-01-12T17:49:19.030Z,6.45
2023-01-12T17:54:40.760Z,5.55
2023-01-12T18:00:07.124Z,4.28
2023-01-12T18:05:31.262Z,4.80
2023-01-12T18:10:53.129Z,4.43
2023-01-12T18:16:15.769Z,2.22
2023-01-12T18:21:37.632Z,4.15
2023-01-12T18:27:00.155Z,4.50
2023-01-12T18:32:21.888Z,1.63
2023-01-12T18:37:43.627Z,5.53
2023-01-12T18:43:05.354Z,6.45
2023-01-12T18:48:27.211Z,2.55
2023-01-12T18:53:48.940Z,4.55
2023-01-12T18:59:10.634Z,3.85
2023-01-12T19:04:58.195Z,2.83
2023-01-12T19:10:19.943Z,4.33
2023-01-12T19:16:00.989Z,3.22
2023-01-12T19:21:41.142Z,2.75
2023-01-12T19:27:21.155Z,3.15
2023-01-12T19:32:43.143Z,4.68
2023-01-12T19:38:04.912Z,2.17
2023-01-12T19:43:29.406Z,6.07
2023-01-12T19:48:51.137Z,3.38
2023-01-12T19:54:13.146Z,5.03
2023-01-12T19:59:34.996Z,2.30
2023-01-12T20:04:56.770Z,5.03
2023-01-12T20:10:20.376Z,4.07
2023-01-12T20:15:43.567Z,2.72
2023-01-12T20:21:08.591Z,3.97
2023-01-12T20:26:30.432Z,5.03
2023-01-12T20:31:52.807Z,4.20
2023-01-12T20:37:14.631Z,2.33
2023-01-12T20:42:36.397Z,3.95
2023-01-12T20:47:58.155Z,2.72
2023-01-12T20:53:20.596Z,3.35
2023-01-12T20:58:42.321Z,2.80
2023-01-12T21:04:04.615Z,4.18
2023-01-12T21:09:26.462Z,4.68
2023-01-12T21:14:48.299Z,4.28
2023-01-12T21:20:10.993Z,4.60
2023-01-12T21:25:32.807Z,3.25
2023-01-12T21:30:54.619Z,5.15
2023-01-12T21:36:18.290Z,4.70
2023-01-12T21:41:58.599Z,3.97
2023-01-12T21:47:20.326Z,3.15
2023-01-12T21:52:42.152Z,3.33
2023-01-12T21:58:03.958Z,3.30
2023-01-12T22:03:26.957Z,1.92
2023-01-12T22:08:48.823Z,4.00
2023-01-12T22:14:10.796Z,2.55
2023-01-12T22:19:32.623Z,2.65
2023-01-12T22:24:54.385Z,2.63
2023-01-12T22:30:19.161Z,4.43
2023-01-12T22:35:41.060Z,3.22
2023-01-12T22:41:05.062Z,2.55
2023-01-12T22:46:27.793Z,3.20
2023-01-12T22:51:49.701Z,5.00
2023-01-12T22:57:12.304Z,3.28
2023-01-12T23:02:52.623Z,2.80
2023-01-12T23:08:16.280Z,2.75
2023-01-12T23:13:39.388Z,4.22
2023-01-12T23:19:01.651Z,2.87
2023-01-12T23:24:23.537Z,3.70
2023-01-12T23:29:47.031Z,2.00
2023-01-12T23:35:09.364Z,1.85
2023-01-12T23:40:31.384Z,1.52
2023-01-12T23:45:53.362Z,2.85
2023-01-12T23:51:16.358Z,3.50
2023-01-12T23:56:38.183Z,3.67
